Time;durP1;ratioP1;P1;durP2;ratioP2;P2;SDS_P1;SDS_P2;PMS_P1;PMS_P2;Temp;Humidity;BMP_temperature;BMP_pressure;BME280_temperature;BME280_humidity;BME280_pressure;Samples;Min_cycle;Max_cycle;Signal;HPM_P1;HPM_P2
2022/05/15 00:01:10;;;;;;;2.15;1.52;;;;;;;27.08;34.41;100967.63;5048856;28;20545;-43
2022/05/15 00:03:39;;;;;;;3.45;1.27;;;;;;;27.08;34.21;100967.63;5054825;28;20079;-44
2022/05/15 00:06:07;;;;;;;2.95;1.50;;;;;;;27.07;34.25;100966.75;5055653;28;20491;-45
2022/05/15 00:08:38;;;;;;;3.00;1.33;;;;;;;27.05;34.60;100959.75;5055371;28;20025;-43
2022/05/15 00:11:09;;;;;;;3.17;1.38;;;;;;;27.08;34.36;100963.25;5053938;28;20035;-45
2022/05/15 00:13:41;;;;;;;3.92;1.70;;;;;;;27.08;34.31;100951.81;5054242;28;20056;-43
2022/05/15 00:16:10;;;;;;;2.83;1.20;;;;;;;27.02;34.27;100950.06;5054619;28;20095;-46
2022/05/15 00:18:39;;;;;;;2.83;1.40;;;;;;;26.92;34.46;100936.03;5055382;28;20441;-43
2022/05/15 00:21:08;;;;;;;2.05;1.30;;;;;;;26.95;34.80;100948.34;5055340;28;20079;-45
2022/05/15 00:23:36;;;;;;;5.93;1.50;;;;;;;27.01;34.72;100950.09;5053705;28;20064;-45
2022/05/15 00:26:05;;;;;;;2.78;1.50;;;;;;;27.03;34.65;100953.59;5053801;28;20037;-45
2022/05/15 00:28:33;;;;;;;2.70;1.60;;;;;;;26.98;34.32;100943.94;5055261;28;20102;-44
2022/05/15 00:31:03;;;;;;;4.60;1.90;;;;;;;27.01;34.62;100936.94;5055120;28;20032;-46
2022/05/15 00:33:31;;;;;;;3.08;1.90;;;;;;;26.98;34.59;100932.50;5055375;28;20067;-46
2022/05/15 00:36:00;;;;;;;3.83;1.23;;;;;;;26.97;34.32;100925.53;5053936;28;20389;-43
2022/05/15 00:38:28;;;;;;;2.90;1.75;;;;;;;26.93;34.82;100924.63;5053837;28;20025;-43
2022/05/15 00:40:57;;;;;;;3.03;1.60;;;;;;;26.89;35.03;100920.22;5037376;28;20174;-43
2022/05/15 00:43:55;;;;;;;4.35;1.55;;;;;;;26.76;34.95;100927.25;5053974;28;20033;-45
2022/05/15 00:46:28;;;;;;;2.97;1.50;;;;;;;26.72;35.28;100921.97;5054976;28;20454;-45
2022/05/15 00:48:58;;;;;;;4.03;1.40;;;;;;;26.75;35.28;100916.69;5055085;28;20040;-43
2022/05/15 00:51:34;;;;;;;3.85;1.50;;;;;;;26.81;35.16;100920.22;5054731;28;20035;-46
2022/05/15 00:54:09;;;;;;;2.85;1.33;;;;;;;26.74;35.44;100918.47;5053772;28;20025;-44
2022/05/15 00:56:37;;;;;;;;;;;;;;;26.71;35.55;100910.56;5055165;28;20029;-44
2022/05/15 00:59:13;;;;;;;5.53;1.45;;;;;;;26.68;35.49;100911.44;5053502;28;20362;-43
2022/05/15 01:01:42;;;;;;;4.22;1.38;;;;;;;26.68;35.52;100907.91;5054174;28;20554;-45
2022/05/15 01:04:11;;;;;;;4.15;1.38;;;;;;;26.79;35.24;100897.41;5054445;28;20041;-48
2022/05/15 01:06:43;;;;;;;2.28;1.50;;;;;;;26.79;35.17;100892.13;5054422;28;20025;-44
2022/05/15 01:09:13;;;;;;;2.75;1.63;;;;;;;26.77;35.41;100893.88;5054686;28;20039;-47
2022/05/15 01:11:42;;;;;;;3.30;1.55;;;;;;;26.66;35.45;100888.63;5054313;28;20025;-48
2022/05/15 01:14:12;;;;;;;2.40;1.30;;;;;;;26.62;35.56;100886.88;5054315;28;20036;-49
2022/05/15 01:16:41;;;;;;;3.60;1.52;;;;;;;26.53;35.72;100885.13;5054334;28;20025;-43
2022/05/15 01:19:10;;;;;;;5.15;1.98;;;;;;;26.44;36.11;100888.63;5054536;28;20029;-48
2022/05/15 01:21:40;;;;;;;4.10;1.58;;;;;;;26.47;36.00;100885.09;5054022;28;20025;-49
2022/05/15 01:24:10;;;;;;;4.43;1.65;;;;;;;26.43;36.22;100884.22;5053749;28;20430;-47
2022/05/15 01:26:38;;;;;;;3.30;1.58;;;;;;;26.43;36.07;100878.06;5054670;28;20033;-48
2022/05/15 01:29:08;;;;;;;4.10;1.48;;;;;;;26.43;36.00;100871.09;5054028;28;20126;-43
2022/05/15 01:31:37;;;;;;;3.45;1.52;;;;;;;26.39;36.15;100883.31;5054127;28;20035;-43
2022/05/15 01:34:08;;;;;;;3.47;1.50;;;;;;;26.47;35.92;100875.47;5053629;28;20025;-50
2022/05/15 01:36:37;;;;;;;5.40;1.38;;;;;;;26.54;35.87;100874.59;5053935;28;20032;-46
2022/05/15 01:39:06;;;;;;;2.42;1.35;;;;;;;26.51;35.83;100871.94;5053975;28;20017;-49
2022/05/15 01:41:34;;;;;;;4.68;1.67;;;;;;;26.50;35.70;100861.44;5053819;28;20467;-45
2022/05/15 01:44:02;;;;;;;3.20;1.30;;;;;;;26.55;35.55;100849.19;5053421;28;20032;-44
2022/05/15 01:46:31;;;;;;;4.70;1.55;;;;;;;26.47;35.56;100830.75;5053710;28;20510;-48
2022/05/15 01:49:00;;;;;;;4.85;2.15;;;;;;;26.60;35.77;100862.31;5053958;28;20021;-46
2022/05/15 01:51:28;;;;;;;3.63;1.23;;;;;;;26.55;35.29;100843.91;5053394;28;20031;-43
2022/05/15 01:53:57;;;;;;;2.72;1.50;;;;;;;26.67;35.20;100853.53;5053815;28;20064;-46
2022/05/15 01:56:24;;;;;;;3.17;1.30;;;;;;;26.67;35.19;100846.53;5053583;28;20386;-44
2022/05/15 01:58:51;;;;;;;4.45;1.50;;;;;;;26.71;35.30;100849.19;5053778;28;20104;-44
2022/05/15 02:01:20;;;;;;;4.25;1.70;;;;;;;26.65;35.29;100842.13;5053644;28;20025;-46
2022/05/15 02:03:48;;;;;;;3.13;1.20;;;;;;;26.65;35.24;100843.03;5053237;28;20409;-46
2022/05/15 02:06:17;;;;;;;2.65;1.27;;;;;;;26.67;35.42;100843.00;5053253;28;20115;-47
2022/05/15 02:08:47;;;;;;;3.13;1.60;;;;;;;26.75;35.23;100836.00;5053122;28;20176;-47
2022/05/15 02:11:16;;;;;;;3.33;1.45;;;;;;;26.77;35.06;100836.00;5052018;28;20040;-44
2022/05/15 02:13:45;;;;;;;4.88;1.90;;;;;;;26.78;35.18;100827.22;5053421;28;20491;-43
2022/05/15 02:16:13;;;;;;;3.20;1.52;;;;;;;26.69;35.10;100829.00;5053598;28;20367;-47
2022/05/15 02:18:42;;;;;;;3.25;1.60;;;;;;;26.60;35.48;100814.97;5053330;28;20035;-50
2022/05/15 02:21:10;;;;;;;2.38;1.40;;;;;;;26.69;35.35;100813.22;5052318;28;20078;-46
2022/05/15 02:23:39;;;;;;;1.95;1.10;;;;;;;26.73;35.09;100808.81;5053204;28;20060;-46
2022/05/15 02:26:08;;;;;;;3.05;1.55;;;;;;;26.77;35.04;100805.31;5053120;28;20025;-48
2022/05/15 02:28:37;;;;;;;3.00;1.38;;;;;;;26.74;35.08;100800.03;5052256;28;20024;-44
2022/05/15 02:31:06;;;;;;;3.63;1.65;;;;;;;26.77;34.94;100796.53;5053136;28;20155;-45
2022/05/15 02:33:35;;;;;;;2.83;1.40;;;;;;;26.73;34.97;100792.13;5058729;28;20111;-49
2022/05/15 02:36:05;;;;;;;2.72;1.48;;;;;;;26.67;35.00;100787.75;5059816;28;20025;-43
2022/05/15 02:38:33;;;;;;;3.80;1.30;;;;;;;26.64;35.38;100772.88;5059573;28;20029;-43
2022/05/15 02:41:02;;;;;;;4.38;1.77;;;;;;;26.61;35.52;100780.75;5059913;28;20112;-46
2022/05/15 02:43:31;;;;;;;2.30;1.25;;;;;;;26.60;35.16;100768.47;5059849;28;20029;-44
2022/05/15 02:45:59;;;;;;;2.17;1.40;;;;;;;26.67;35.02;100770.22;5059901;28;20110;-46
2022/05/15 02:51:15;;;;;;;4.05;1.58;;;;;;;26.68;35.12;100778.97;5052974;28;20115;-47
2022/05/15 02:53:45;;;;;;;3.67;1.60;;;;;;;26.57;35.43;100780.75;5059576;28;20079;-50
2022/05/15 02:56:18;;;;;;;3.45;1.38;;;;;;;26.62;35.42;100776.38;5059427;28;20025;-45
2022/05/15 02:58:47;;;;;;;4.50;1.63;;;;;;;26.63;35.15;100776.38;5058561;28;20103;-43
2022/05/15 03:01:16;;;;;;;2.35;1.27;;;;;;;26.61;35.63;100766.72;5059597;28;20037;-43
2022/05/15 03:03:45;;;;;;;1.55;1.13;;;;;;;26.60;35.26;100771.09;5059498;28;20029;-44
2022/05/15 03:06:13;;;;;;;3.88;1.60;;;;;;;26.54;35.56;100766.72;5059214;28;20486;-48
2022/05/15 03:08:44;;;;;;;3.13;1.48;;;;;;;26.46;35.56;100770.25;5057992;28;20055;-48
2022/05/15 03:11:13;;;;;;;3.38;1.40;;;;;;;26.48;35.74;100769.34;5059799;28;20481;-46
2022/05/15 03:13:42;;;;;;;6.50;1.40;;;;;;;26.53;35.64;100756.22;5059044;28;20462;-43
2022/05/15 03:16:12;;;;;;;4.15;1.45;;;;;;;26.54;35.20;100739.56;5059720;28;20040;-45
2022/05/15 03:18:43;;;;;;;2.50;1.08;;;;;;;26.51;35.52;100732.53;5059446;28;20025;-47
2022/05/15 03:21:28;;;;;;;2.45;1.17;;;;;;;26.49;35.58;100723.75;5059546;28;20033;-43
2022/05/15 03:24:06;;;;;;;2.50;1.20;;;;;;;26.47;35.78;100720.28;5059204;28;20049;-43
2022/05/15 03:26:38;;;;;;;1.92;1.35;;;;;;;26.50;35.84;100711.50;5057651;28;20033;-44
2022/05/15 03:29:07;;;;;;;2.70;1.10;;;;;;;26.48;35.66;100698.34;5059651;28;20040;-44
2022/05/15 03:31:35;;;;;;;4.80;1.45;;;;;;;26.51;35.58;100692.22;5059149;28;20025;-49
2022/05/15 03:34:11;;;;;;;3.05;1.27;;;;;;;26.52;35.56;100688.69;5059267;28;20076;-50
2022/05/15 03:36:41;;;;;;;2.63;1.48;;;;;;;26.52;35.47;100670.28;5074712;28;20028;-43
2022/05/15 03:39:10;;;;;;;2.47;1.20;;;;;;;26.54;35.10;100666.78;5059228;28;20025;-44
2022/05/15 03:41:39;;;;;;;4.05;1.55;;;;;;;26.49;35.61;100668.53;5059214;28;20385;-44
2022/05/15 03:44:08;;;;;;;2.22;1.30;;;;;;;26.46;35.52;100660.66;5056369;28;20033;-44
2022/05/15 03:46:37;;;;;;;3.75;1.63;;;;;;;26.51;35.66;100655.38;5055732;28;20033;-48
2022/05/15 03:49:06;;;;;;;1.88;1.25;;;;;;;26.36;35.98;100645.75;5056298;28;20045;-49
2022/05/15 03:51:35;;;;;;;2.58;1.33;;;;;;;26.25;36.13;100643.16;5056033;28;20025;-43
2022/05/15 03:54:02;;;;;;;4.75;1.38;;;;;;;26.28;36.00;100643.16;5056130;28;20025;-47
2022/05/15 03:56:51;;;;;;;2.72;1.30;;;;;;;26.18;36.41;100652.81;5055705;28;20029;-44
2022/05/15 03:59:21;;;;;;;2.20;1.10;;;;;;;26.21;36.18;100651.94;5055601;28;20540;-47
2022/05/15 04:01:49;;;;;;;2.30;1.00;;;;;;;26.05;36.26;100632.63;5055809;28;20041;-44
2022/05/15 04:04:18;;;;;;;4.90;1.25;;;;;;;26.19;36.02;100657.19;5055655;28;20461;-45
2022/05/15 04:06:47;;;;;;;2.05;1.30;;;;;;;26.23;36.32;100652.78;5055499;28;20028;-44
2022/05/15 04:09:15;;;;;;;3.30;1.33;;;;;;;26.17;36.26;100634.41;5055464;28;20033;-50
2022/05/15 04:11:43;;;;;;;1.88;1.20;;;;;;;26.24;36.00;100641.41;5053881;28;20060;-45
2022/05/15 04:14:12;;;;;;;3.45;1.30;;;;;;;26.28;36.13;100645.78;5055650;28;20029;-43
2022/05/15 04:16:41;;;;;;;4.20;1.60;;;;;;;26.26;36.12;100646.66;5055875;28;20059;-43
2022/05/15 04:19:09;;;;;;;4.43;1.45;;;;;;;26.32;36.10;100652.78;5055333;28;20036;-45
2022/05/15 04:21:40;;;;;;;1.83;1.10;;;;;;;26.20;36.43;100656.31;5054823;28;20067;-49
2022/05/15 04:24:11;;;;;;;3.53;1.50;;;;;;;26.14;36.50;100658.06;5055178;28;20045;-43
2022/05/15 04:26:41;;;;;;;1.90;1.02;;;;;;;26.00;36.52;100655.41;5055149;28;20037;-43
2022/05/15 04:29:09;;;;;;;3.60;1.52;;;;;;;26.07;36.85;100659.81;5055197;28;20375;-44
2022/05/15 04:31:38;;;;;;;4.00;1.27;;;;;;;26.05;36.61;100672.06;5055051;28;20077;-45
2022/05/15 04:34:07;;;;;;;2.97;1.25;;;;;;;26.00;37.01;100673.81;5055192;28;20032;-45
2022/05/15 04:36:36;;;;;;;3.22;1.63;;;;;;;25.91;36.97;100677.31;5054987;28;20474;-43
2022/05/15 04:39:06;;;;;;;2.95;1.98;;;;;;;25.93;37.22;100672.94;5055209;28;20033;-47
2022/05/15 04:41:35;;;;;;;4.43;1.77;;;;;;;25.84;37.27;100667.69;5055165;28;20029;-43
2022/05/15 04:44:03;;;;;;;3.13;1.45;;;;;;;25.91;37.30;100679.94;5053317;28;20028;-43
2022/05/15 04:46:31;;;;;;;3.25;1.38;;;;;;;25.86;37.28;100679.94;5054529;28;20025;-50
2022/05/15 04:49:00;;;;;;;2.55;1.60;;;;;;;25.78;37.26;100672.06;5070144;28;20070;-45
2022/05/15 04:51:29;;;;;;;3.53;1.70;;;;;;;25.79;37.29;100676.44;5054977;28;20029;-44
2022/05/15 04:53:57;;;;;;;4.88;1.67;;;;;;;25.84;37.29;100699.22;5055003;28;20032;-45
2022/05/15 04:56:26;;;;;;;3.33;1.40;;;;;;;25.76;37.93;100693.97;5054469;28;20108;-44
2022/05/15 04:58:55;;;;;;;4.00;1.45;;;;;;;25.76;37.79;100691.34;5054783;28;20114;-46
2022/05/15 05:01:25;;;;;;;2.53;1.52;;;;;;;25.75;37.64;100690.44;5054505;28;20044;-44
2022/05/15 05:03:54;;;;;;;3.65;1.50;;;;;;;25.68;37.70;100693.06;5054692;28;20491;-43
2022/05/15 05:06:23;;;;;;;2.88;1.63;;;;;;;25.70;37.82;100689.59;5054431;28;20037;-44
2022/05/15 05:08:50;;;;;;;2.45;1.30;;;;;;;25.70;38.15;100692.22;5054565;28;20036;-47
2022/05/15 05:11:19;;;;;;;3.55;1.60;;;;;;;25.73;38.00;100701.84;5053190;28;20028;-43
2022/05/15 05:13:48;;;;;;;2.78;1.70;;;;;;;25.69;37.98;100690.47;5054479;28;20025;-45
2022/05/15 05:16:15;;;;;;;2.70;1.45;;;;;;;25.68;38.44;100698.31;5054553;28;20367;-43
2022/05/15 05:18:44;;;;;;;8.63;1.90;;;;;;;25.65;38.61;100698.34;5054436;28;20021;-44
2022/05/15 05:21:12;;;;;;;6.68;1.63;;;;;;;25.65;38.66;100700.97;5054227;28;20115;-48
2022/05/15 05:23:41;;;;;;;4.40;1.73;;;;;;;25.63;38.51;100707.09;5054044;28;20475;-44
2022/05/15 05:26:09;;;;;;;3.30;2.10;;;;;;;25.71;38.55;100704.47;5052557;28;20072;-43
2022/05/15 05:28:37;;;;;;;4.07;1.77;;;;;;;25.72;38.38;100706.22;5054094;28;20039;-44
2022/05/15 05:31:06;;;;;;;5.82;2.10;;;;;;;25.77;38.66;100711.47;5053810;28;20079;-46
2022/05/15 05:33:34;;;;;;;5.97;2.25;;;;;;;25.76;38.77;100705.34;5054209;28;20024;-49
2022/05/15 05:36:03;;;;;;;4.75;1.88;;;;;;;25.67;38.71;100686.94;5068932;28;20053;-45
2022/05/15 05:38:31;;;;;;;7.40;2.33;;;;;;;25.80;38.56;100708.88;5054165;28;20056;-47
2022/05/15 05:40:59;;;;;;;3.88;1.60;;;;;;;25.78;38.73;100711.47;5054292;28;20087;-44
2022/05/15 05:43:28;;;;;;;6.35;2.20;;;;;;;25.70;38.75;100693.94;5053858;28;20079;-43
2022/05/15 05:45:56;;;;;;;3.75;1.98;;;;;;;25.86;38.48;100710.63;5053757;28;20029;-47
2022/05/15 05:48:24;;;;;;;3.67;2.00;;;;;;;25.84;38.54;100688.72;5053793;28;20029;-45
2022/05/15 05:50:53;;;;;;;4.80;2.35;;;;;;;25.96;38.63;100706.25;5053759;28;20056;-49
2022/05/15 05:53:20;;;;;;;8.18;2.63;;;;;;;25.95;38.96;100713.25;5053871;28;20079;-48
2022/05/15 05:55:49;;;;;;;5.03;2.40;;;;;;;25.91;38.61;100701.84;5052859;28;20507;-45
2022/05/15 05:58:16;;;;;;;4.97;2.15;;;;;;;25.93;38.51;100704.47;5053564;28;20037;-43
2022/05/15 06:00:45;;;;;;;10.95;2.58;;;;;;;25.97;38.63;100694.88;5053126;28;20035;-49
2022/05/15 06:06:01;;;;;;;4.93;2.47;;;;;;;26.04;38.90;100701.84;5046150;28;20048;-48
2022/05/15 06:08:29;;;;;;;6.10;2.80;;;;;;;26.07;38.75;100696.59;5053128;28;20048;-45
2022/05/15 06:10:58;;;;;;;4.75;2.30;;;;;;;26.00;38.91;100693.09;5053757;28;20035;-43
2022/05/15 06:13:27;;;;;;;4.38;2.45;;;;;;;26.01;38.75;100699.22;5053923;28;20032;-45
2022/05/15 06:15:55;;;;;;;5.07;2.20;;;;;;;25.97;38.85;100700.97;5052946;28;20096;-48
2022/05/15 06:18:24;;;;;;;5.35;2.50;;;;;;;25.97;39.08;100711.50;5053208;28;20454;-44
2022/05/15 06:20:52;;;;;;;7.75;2.83;;;;;;;25.98;39.06;100721.13;5053343;28;20025;-46
2022/05/15 06:23:21;;;;;;;5.75;2.42;;;;;;;25.97;38.77;100710.63;5052887;28;20102;-44
2022/05/15 06:25:48;;;;;;;3.95;2.25;;;;;;;25.99;38.90;100715.00;5053407;28;20021;-47
2022/05/15 06:28:17;;;;;;;5.10;2.40;;;;;;;26.02;38.54;100722.91;5053537;28;20512;-45
2022/05/15 06:30:44;;;;;;;8.45;2.60;;;;;;;26.06;38.52;100727.25;5053207;28;20104;-49
2022/05/15 06:33:11;;;;;;;6.05;2.55;;;;;;;26.06;38.87;100721.13;5053136;28;20035;-44
2022/05/15 06:35:38;;;;;;;5.13;2.50;;;;;;;26.07;38.66;100718.50;5053293;28;20025;-47
2022/05/15 06:38:08;;;;;;;10.07;2.25;;;;;;;26.10;38.38;100715.00;5053040;28;20049;-43
2022/05/15 06:40:36;;;;;;;4.70;2.20;;;;;;;26.16;38.42;100715.03;5053125;28;20044;-48
2022/05/15 06:43:05;;;;;;;6.20;2.15;;;;;;;26.13;38.44;100719.41;5052712;28;20025;-45
2022/05/15 06:45:34;;;;;;;6.15;2.30;;;;;;;26.13;38.86;100719.41;5052876;28;20464;-46
2022/05/15 06:48:02;;;;;;;6.85;2.90;;;;;;;26.09;38.97;100727.25;5053154;28;20467;-46
2022/05/15 06:50:31;;;;;;;7.18;2.28;;;;;;;26.08;38.67;100729.91;5052978;28;20083;-47
2022/05/15 06:52:59;;;;;;;6.82;2.45;;;;;;;26.13;38.68;100732.56;5053325;28;20028;-47
2022/05/15 06:55:28;;;;;;;7.55;2.85;;;;;;;26.12;38.90;100736.06;5052821;28;20052;-45
2022/05/15 06:57:56;;;;;;;8.15;2.50;;;;;;;26.04;38.95;100741.28;5052832;28;20040;-44
2022/05/15 07:00:28;;;;;;;6.65;2.30;;;;;;;26.09;38.78;100742.19;5052885;28;20433;-46
2022/05/15 07:02:56;;;;;;;6.93;2.45;;;;;;;26.16;38.54;100748.34;5053300;28;20205;-46
2022/05/15 07:05:30;;;;;;;8.15;2.40;;;;;;;26.10;38.95;100741.31;5052332;28;20029;-46
2022/05/15 07:07:59;;;;;;;7.13;2.77;;;;;;;26.10;39.00;100749.19;5053030;28;20017;-47
2022/05/15 07:10:27;;;;;;;8.32;2.47;;;;;;;26.10;38.88;100749.19;5053017;28;20021;-45
2022/05/15 07:12:56;;;;;;;6.32;2.50;;;;;;;26.20;38.60;100748.34;5052667;28;20391;-45
2022/05/15 07:15:24;;;;;;;4.97;2.20;;;;;;;26.18;38.75;100747.44;5052660;28;20029;-48
2022/05/15 07:17:53;;;;;;;8.02;2.53;;;;;;;26.31;38.47;100753.59;5052886;28;20033;-43
2022/05/15 07:20:22;;;;;;;7.85;2.55;;;;;;;26.20;38.83;100745.72;5055251;28;20029;-49
2022/05/15 07:22:50;;;;;;;5.93;2.13;;;;;;;26.21;38.66;100741.34;5056268;28;20032;-45
2022/05/15 07:25:17;;;;;;;5.07;2.03;;;;;;;26.28;38.48;100739.59;5056691;28;20104;-45
2022/05/15 07:27:46;;;;;;;8.88;2.38;;;;;;;26.21;38.71;100726.44;5054909;28;20120;-47
2022/05/15 07:30:15;;;;;;;6.82;2.80;;;;;;;26.20;39.17;100737.81;5055978;28;20105;-45
2022/05/15 07:32:44;;;;;;;8.68;2.60;;;;;;;26.26;38.82;100739.56;5054860;28;20032;-43
2022/05/15 07:35:14;;;;;;;6.50;2.65;;;;;;;26.37;38.66;100736.94;5056240;28;20025;-47
2022/05/15 07:37:42;;;;;;;6.05;2.35;;;;;;;26.35;39.02;100736.94;5056239;28;20036;-48
2022/05/15 07:40:12;;;;;;;6.60;2.50;;;;;;;26.31;38.80;100734.31;5056041;28;20115;-49
2022/05/15 07:42:41;;;;;;;7.22;2.40;;;;;;;26.32;38.94;100733.41;5056378;28;20056;-49
2022/05/15 07:45:10;;;;;;;7.43;2.78;;;;;;;26.26;38.86;100730.81;5055910;28;20368;-45
2022/05/15 07:47:39;;;;;;;8.50;2.92;;;;;;;26.23;39.08;100726.41;5055918;28;20035;-45
2022/05/15 07:50:07;;;;;;;6.18;2.83;;;;;;;26.25;39.09;100737.81;5055541;28;20021;-45
2022/05/15 07:52:36;;;;;;;5.38;3.05;;;;;;;26.24;39.23;100734.31;5056529;28;20025;-46
2022/05/15 07:55:06;;;;;;;7.82;3.88;;;;;;;26.24;39.66;100752.72;5055712;28;20029;-43
2022/05/15 07:57:35;;;;;;;7.63;3.60;;;;;;;26.29;39.56;100751.84;5054307;28;20124;-42
2022/05/15 08:00:05;;;;;;;9.05;3.72;;;;;;;26.21;39.79;100746.59;5055701;28;20469;-44
2022/05/15 08:02:34;;;;;;;12.40;3.60;;;;;;;26.22;39.91;100753.63;5055490;28;20493;-45
2022/05/15 08:08:01;;;;;;;6.72;2.95;;;;;;;26.26;39.80;100759.75;5047730;28;20044;-44
2022/05/15 08:10:32;;;;;;;8.23;3.03;;;;;;;26.26;39.94;100751.84;5055613;28;20030;-43
2022/05/15 08:12:59;;;;;;;7.47;3.20;;;;;;;26.26;40.05;100754.47;5055554;28;20474;-43
2022/05/15 08:15:28;;;;;;;6.95;3.05;;;;;;;26.28;40.21;100744.84;5054359;28;20378;-43
2022/05/15 08:23:33;;;;;;;5.95;3.03;;;;;;;26.20;39.92;100748.34;5055380;28;20040;-46
2022/05/15 08:23:36;;;;;;;9.30;3.63;;;;;;;26.24;40.34;100757.97;5048632;28;20044;-44
2022/05/15 08:26:06;;;;;;;7.03;2.88;;;;;;;26.27;40.22;100749.22;5054735;28;20036;-43
2022/05/15 08:28:35;;;;;;;6.00;2.38;;;;;;;26.31;40.49;100760.63;5055302;28;20106;-44
2022/05/15 08:31:05;;;;;;;5.82;2.90;;;;;;;26.18;41.03;100757.09;5053082;28;20029;-43
2022/05/15 08:33:33;;;;;;;5.63;2.35;;;;;;;26.13;40.95;100746.59;5055083;28;20032;-46
2022/05/15 08:36:03;;;;;;;5.88;3.05;;;;;;;26.19;41.38;100743.09;5055133;28;20104;-44
2022/05/15 08:38:31;;;;;;;9.27;3.92;;;;;;;26.15;41.52;100746.59;5054338;28;20120;-43
2022/05/15 08:41:11;;;;;;;12.63;4.30;;;;;;;26.12;41.14;100750.09;5055167;28;20035;-45
2022/05/15 08:43:55;;;;;;;9.40;4.35;;;;;;;26.23;41.36;100744.81;5055133;28;20033;-49
2022/05/15 08:46:36;;;;;;;10.25;4.57;;;;;;;26.11;41.40;100748.34;5053600;28;20037;-47
2022/05/15 08:49:12;;;;;;;8.35;4.55;;;;;;;26.14;41.70;100750.97;5054993;28;20091;-44
2022/05/15 08:51:51;;;;;;;7.20;4.15;;;;;;;26.14;41.34;100742.19;5054932;28;20532;-45
2022/05/15 08:54:18;;;;;;;11.10;4.43;;;;;;;26.18;41.35;100739.56;5053031;28;20029;-49
2022/05/15 08:56:50;;;;;;;11.68;4.63;;;;;;;26.16;41.55;100740.44;5053673;28;20040;-43
2022/05/15 08:59:24;;;;;;;9.82;3.92;;;;;;;26.13;41.46;100722.03;5053639;28;20358;-49
2022/05/15 09:01:53;;;;;;;;;;;;;;;26.30;41.40;100740.47;5055182;28;20473;-43
2022/05/15 09:04:22;;;;;;;6.78;3.90;;;;;;;26.31;41.55;100750.09;5054809;28;20277;-43
2022/05/15 09:07:13;;;;;;;10.73;4.95;;;;;;;26.37;41.15;100750.97;5054249;28;20029;-49
2022/05/15 09:09:54;;;;;;;14.80;3.85;;;;;;;26.38;41.48;100752.72;5055049;28;20075;-46
2022/05/15 09:12:24;;;;;;;8.30;3.65;;;;;;;26.37;41.68;100757.97;5054236;28;20033;-44
2022/05/15 09:15:08;;;;;;;9.82;3.05;;;;;;;26.42;41.71;100757.97;5054125;28;20471;-47
2022/05/15 09:17:45;;;;;;;12.80;3.38;;;;;;;26.44;41.71;100751.84;5053312;28;20116;-45
2022/05/15 09:20:47;;;;;;;10.73;3.70;;;;;;;26.52;41.94;100757.97;5054201;28;20578;-44
2022/05/15 09:23:35;;;;;;;11.57;3.72;;;;;;;26.48;41.74;100755.34;5050366;28;20067;-43
2022/05/15 09:26:30;;;;;;;8.20;3.13;;;;;;;26.57;41.65;100751.81;5053556;28;20048;-45
2022/05/15 09:29:01;;;;;;;9.70;3.40;;;;;;;26.56;41.56;100748.31;5054005;28;20032;-46
2022/05/15 09:31:42;;;;;;;11.52;3.72;;;;;;;26.61;41.54;100748.31;5052668;28;20485;-47
2022/05/15 09:34:22;;;;;;;9.65;3.78;;;;;;;26.64;41.21;100743.06;5053959;28;20048;-43
2022/05/15 09:36:52;;;;;;;11.30;3.08;;;;;;;26.76;40.97;100739.50;5037894;28;20021;-46
2022/05/15 09:39:44;;;;;;;11.13;3.72;;;;;;;26.72;41.44;100740.41;5052912;28;20039;-45
2022/05/15 09:45:31;;;;;;;11.50;3.90;;;;;;;26.89;41.25;100749.16;5045763;28;20402;-46
2022/05/15 09:48:01;;;;;;;11.80;3.13;;;;;;;26.92;40.96;100750.91;5036033;28;20029;-43
2022/05/15 09:50:42;;;;;;;13.82;3.80;;;;;;;26.83;41.05;100739.50;5052320;28;20487;-45
2022/05/15 09:53:18;;;;;;;8.60;3.40;;;;;;;26.92;40.76;100743.00;5053700;28;20033;-45
2022/05/15 09:56:07;;;;;;;10.48;3.38;;;;;;;26.98;39.94;100750.88;5053896;28;20458;-44
2022/05/15 09:58:41;;;;;;;8.45;3.15;;;;;;;27.02;40.60;100750.00;5053508;28;20029;-45
2022/05/15 10:01:47;;;;;;;9.43;3.50;;;;;;;27.14;40.70;100749.94;5053386;28;20025;-45
2022/05/15 10:04:40;;;;;;;6.13;2.78;;;;;;;27.13;41.17;100756.13;5052956;28;20067;-45
2022/05/15 10:07:09;;;;;;;6.22;3.00;;;;;;;27.03;40.43;100743.00;5053093;28;20429;-46
2022/05/15 10:09:40;;;;;;;7.68;3.10;;;;;;;27.10;40.46;100749.97;5052065;28;20394;-48
2022/05/15 10:12:28;;;;;;;10.48;3.60;;;;;;;27.13;40.72;100752.59;5035380;28;20116;-45
2022/05/15 10:14:59;;;;;;;6.70;3.42;;;;;;;27.13;40.90;100757.84;5044315;28;20080;-43
2022/05/15 10:17:28;;;;;;;10.18;3.55;;;;;;;27.06;40.67;100743.84;5053574;28;20459;-44
2022/05/15 10:20:04;;;;;;;8.13;3.28;;;;;;;27.04;40.38;100747.38;5052062;28;20087;-46
2022/05/15 10:22:38;;;;;;;8.65;3.40;;;;;;;27.14;40.55;100759.59;5053408;28;20135;-43
2022/05/15 10:25:18;;;;;;;7.13;3.45;;;;;;;26.97;40.67;100734.22;5051684;28;20052;-45
2022/05/15 10:27:54;;;;;;;10.45;3.80;;;;;;;27.17;40.45;100769.25;5053048;28;20048;-44
2022/05/15 10:30:27;;;;;;;8.45;3.38;;;;;;;27.22;40.17;100760.44;5052951;28;20031;-45
2022/05/15 10:33:05;;;;;;;10.20;3.00;;;;;;;27.19;39.92;100762.22;5051970;28;20455;-44
2022/05/15 10:36:09;;;;;;;8.40;3.33;;;;;;;27.25;39.90;100780.66;5051955;28;20069;-43
2022/05/15 10:38:57;;;;;;;7.60;3.33;;;;;;;27.15;40.67;100748.19;5044714;28;20048;-43
2022/05/15 10:41:51;;;;;;;8.43;3.45;;;;;;;27.31;40.32;100770.06;5051989;28;20099;-45
2022/05/15 10:44:44;;;;;;;7.38;3.20;;;;;;;27.36;40.16;100759.53;5049040;28;20056;-46
2022/05/15 10:47:19;;;;;;;9.82;3.45;;;;;;;27.27;40.49;100752.53;5048691;28;20045;-44
2022/05/15 10:49:48;;;;;;;8.07;2.75;;;;;;;27.33;40.19;100757.78;5052969;28;20043;-43
2022/05/15 10:52:23;;;;;;;8.88;3.63;;;;;;;27.37;40.10;100758.66;5053051;28;20479;-45
2022/05/15 10:58:03;;;;;;;8.95;3.65;;;;;;;27.33;40.37;100756.91;5046252;28;20446;-45
2022/05/15 11:00:51;;;;;;;8.88;3.10;;;;;;;27.33;39.97;100763.03;5056987;28;20036;-46
2022/05/15 11:03:29;;;;;;;8.15;3.42;;;;;;;27.34;40.38;100769.19;5057008;28;20025;-43
2022/05/15 11:06:11;;;;;;;8.90;3.78;;;;;;;27.36;40.07;100751.63;5056872;28;20060;-45
2022/05/15 11:08:48;;;;;;;7.65;3.17;;;;;;;27.39;39.84;100757.75;5055587;28;20466;-45
2022/05/15 11:11:54;;;;;;;11.98;3.17;;;;;;;27.35;39.59;100750.75;5055666;28;20490;-43
2022/05/15 11:14:35;;;;;;;5.95;2.67;;;;;;;27.41;39.67;100761.25;5056141;28;20033;-46
2022/05/15 11:17:26;;;;;;;8.43;3.25;;;;;;;27.39;39.48;100757.75;5056655;28;20017;-45
2022/05/15 11:19:56;;;;;;;8.30;2.95;;;;;;;27.34;39.62;100748.97;5052736;28;20036;-44
2022/05/15 11:22:36;;;;;;;9.07;3.42;;;;;;;27.32;39.83;100744.63;5056548;28;20470;-44
2022/05/15 11:25:16;;;;;;;8.65;3.22;;;;;;;27.37;39.48;100748.13;5054969;28;20080;-44
2022/05/15 11:27:48;;;;;;;6.93;3.05;;;;;;;27.32;39.55;100776.22;5056417;28;20368;-45
2022/05/15 11:30:37;;;;;;;5.75;3.13;;;;;;;27.40;39.29;100758.59;5055696;28;20433;-44
2022/05/15 11:33:08;;;;;;;10.35;3.50;;;;;;;27.35;39.49;100736.72;5051284;28;20375;-45
2022/05/15 11:35:39;;;;;;;6.43;3.40;;;;;;;27.32;40.09;100708.59;5055122;28;20043;-44
2022/05/15 11:38:12;;;;;;;8.68;3.78;;;;;;;27.22;39.45;100689.34;5056683;28;20040;-44
2022/05/15 11:40:52;;;;;;;7.05;3.60;;;;;;;27.40;39.41;100691.00;5055209;28;20033;-43
2022/05/15 11:43:29;;;;;;;10.95;4.43;;;;;;;27.41;39.54;100698.03;5056664;28;20025;-48
2022/05/15 11:46:07;;;;;;;13.35;5.43;;;;;;;27.31;40.30;100683.16;5056023;28;20032;-45
2022/05/15 11:48:44;;;;;;;10.30;3.72;;;;;;;27.29;39.78;100693.72;5055757;28;20457;-46
2022/05/15 11:51:13;;;;;;;8.52;4.15;;;;;;;27.31;39.42;100685.78;5056572;28;20112;-47
2022/05/15 11:54:02;;;;;;;10.82;4.45;;;;;;;27.41;39.69;100676.97;5055740;28;20063;-47
2022/05/15 11:56:58;;;;;;;9.77;4.30;;;;;;;27.42;39.59;100678.72;5055909;28;20053;-43
2022/05/15 11:59:27;;;;;;;6.93;3.75;;;;;;;27.39;40.49;100677.84;5051314;28;20083;-43
2022/05/15 12:01:58;;;;;;;5.57;3.35;;;;;;;27.32;40.65;100682.25;5055147;28;20434;-46
2022/05/15 12:04:36;;;;;;;12.68;3.83;;;;;;;27.39;40.55;100694.53;5053979;28;20029;-47